createdAt,value
2023-04-06T00:01:48.059Z,-0.76
2023-04-06T00:04:15.771Z,-0.99
2023-04-06T00:06:43.276Z,-1.14
2023-04-06T00:09:10.850Z,-1.21
2023-04-06T00:11:38.229Z,-1.23
2023-04-06T00:14:05.738Z,-1.10
2023-04-06T00:16:33.175Z,-0.82
2023-04-06T00:19:00.599Z,-1.04
2023-04-06T00:21:28.297Z,-0.77
2023-04-06T00:23:56.106Z,-1.01
2023-04-06T00:26:23.431Z,-0.99
2023-04-06T00:28:53.136Z,-0.94
2023-04-06T00:31:20.487Z,-1.02
2023-04-06T00:33:49.427Z,-0.96
2023-04-06T00:36:16.832Z,-0.93
2023-04-06T00:38:44.326Z,-1.25
2023-04-06T00:41:11.766Z,-1.20
2023-04-06T00:43:39.088Z,-1.17
2023-04-06T00:46:07.029Z,-1.15
2023-04-06T00:48:34.615Z,-1.31
2023-04-06T00:51:02.772Z,-1.22
2023-04-06T00:53:30.408Z,-1.23
2023-04-06T00:55:59.391Z,-1.02
2023-04-06T00:58:27.136Z,-1.09
2023-04-06T01:01:02.646Z,-1.40
2023-04-06T01:03:30.135Z,-1.38
2023-04-06T01:05:59.393Z,-1.28
2023-04-06T01:08:33.198Z,-1.20
2023-04-06T01:11:13.452Z,-1.31
2023-04-06T01:13:41.101Z,-1.37
2023-04-06T01:16:16.607Z,-1.34
2023-04-06T01:19:13.096Z,-1.50
2023-04-06T01:21:45.096Z,-1.34
2023-04-06T01:24:30.685Z,-1.26
2023-04-06T01:27:11.690Z,-1.17
2023-04-06T01:29:48.057Z,-1.07
2023-04-06T01:32:22.585Z,-1.27
2023-04-06T01:34:52.255Z,-1.29
2023-04-06T01:37:19.778Z,-1.43
2023-04-06T01:39:47.595Z,-1.46
2023-04-06T01:42:24.150Z,-1.44
2023-04-06T01:44:52.006Z,-1.44
2023-04-06T01:47:19.399Z,-1.44
2023-04-06T01:49:47.469Z,-1.43
2023-04-06T01:52:16.800Z,-1.37
2023-04-06T01:54:51.712Z,-1.39
2023-04-06T01:57:36.041Z,-1.44
2023-04-06T02:00:15.529Z,-1.41
2023-04-06T02:02:47.487Z,-1.46
2023-04-06T02:05:21.948Z,-1.47
2023-04-06T02:07:51.326Z,-1.40
2023-04-06T02:10:23.159Z,-1.36
2023-04-06T02:12:50.708Z,-1.39
2023-04-06T02:15:24.244Z,-1.46
2023-04-06T02:17:52.658Z,-1.47
2023-04-06T02:20:20.163Z,-1.42
2023-04-06T02:22:47.611Z,-1.44
2023-04-06T02:25:15.110Z,-1.66
2023-04-06T02:27:42.608Z,-1.80
2023-04-06T02:30:10.847Z,-1.64
2023-04-06T02:32:38.278Z,-1.52
2023-04-06T02:35:06.125Z,-1.69
2023-04-06T02:37:35.440Z,-1.78
2023-04-06T02:40:02.731Z,-1.78
2023-04-06T02:42:31.828Z,-1.79
2023-04-06T02:44:59.206Z,-1.87
2023-04-06T02:47:31.141Z,-1.96
2023-04-06T02:49:58.474Z,-1.91
2023-04-06T02:52:26.156Z,-1.92
2023-04-06T02:54:53.482Z,-1.72
2023-04-06T02:57:26.752Z,-1.73
2023-04-06T02:59:54.302Z,-1.69
2023-04-06T03:02:28.926Z,-1.78
2023-04-06T03:05:05.629Z,-2.14
2023-04-06T03:07:37.687Z,-2.14
2023-04-06T03:10:06.328Z,-2.16
2023-04-06T03:12:34.019Z,-2.08
2023-04-06T03:15:18.092Z,-1.88
2023-04-06T03:17:50.930Z,-1.98
2023-04-06T03:20:43.708Z,-2.03
2023-04-06T03:23:11.795Z,-1.99
2023-04-06T03:25:42.510Z,-1.99
2023-04-06T03:28:14.338Z,-1.91
2023-04-06T03:30:50.902Z,-2.01
2023-04-06T03:33:24.566Z,-2.06
2023-04-06T03:35:55.974Z,-1.98
2023-04-06T03:38:26.304Z,-2.13
2023-04-06T03:40:54.680Z,-2.12
2023-04-06T03:43:26.014Z,-2.15
2023-04-06T03:45:53.396Z,-2.10
2023-04-06T03:48:21.250Z,-2.12
2023-04-06T03:50:48.783Z,-2.17
2023-04-06T03:53:16.328Z,-2.22
2023-04-06T03:55:43.521Z,-2.25
2023-04-06T03:58:11.022Z,-2.21
2023-04-06T04:00:38.876Z,-2.22
2023-04-06T04:03:06.585Z,-2.27
2023-04-06T04:05:33.938Z,-2.41
2023-04-06T04:08:01.421Z,-2.34
2023-04-06T04:10:28.742Z,-2.36
2023-04-06T04:12:56.194Z,-2.36
2023-04-06T04:15:24.031Z,-2.35
2023-04-06T04:17:51.760Z,-2.40
2023-04-06T04:20:19.290Z,-2.53
2023-04-06T04:22:46.614Z,-2.66
2023-04-06T04:25:15.675Z,-2.64
2023-04-06T04:27:47.821Z,-2.65
2023-04-06T04:30:16.457Z,-2.62
2023-04-06T04:32:43.847Z,-2.60
2023-04-06T04:35:12.370Z,-2.46
2023-04-06T04:37:42.646Z,-2.44
2023-04-06T04:40:11.796Z,-2.35
2023-04-06T04:42:53.412Z,-2.31
2023-04-06T04:45:27.368Z,-2.23
2023-04-06T04:47:54.822Z,-2.13
2023-04-06T04:50:25.212Z,-2.08
2023-04-06T04:52:56.766Z,-2.01
2023-04-06T04:55:27.131Z,-1.95
2023-04-06T04:57:58.087Z,-1.88
2023-04-06T05:00:43.221Z,-1.64
2023-04-06T05:03:24.334Z,-1.51
2023-04-06T05:06:07.310Z,-1.30
2023-04-06T05:08:37.922Z,-1.18
2023-04-06T05:11:06.078Z,-1.01
2023-04-06T05:13:37.987Z,-0.85
2023-04-06T05:16:11.973Z,-0.64
2023-04-06T05:18:39.506Z,-0.40
2023-04-06T05:21:07.685Z,-0.33
2023-04-06T05:23:48.543Z,-0.32
2023-04-06T05:26:15.963Z,-0.08
2023-04-06T05:28:45.406Z,-0.14
2023-04-06T05:31:13.790Z,-0.10
2023-04-06T05:33:47.428Z,-0.14
2023-04-06T05:36:17.298Z,0.25
2023-04-06T05:38:47.170Z,0.59
2023-04-06T05:41:34.773Z,0.64
2023-04-06T05:44:02.400Z,0.72
2023-04-06T05:46:31.146Z,1.03
2023-04-06T05:49:00.221Z,1.23
2023-04-06T05:51:31.369Z,1.46
2023-04-06T05:53:59.122Z,1.24
2023-04-06T05:56:27.382Z,1.55
2023-04-06T05:58:54.969Z,1.93
2023-04-06T06:01:27.851Z,1.97
2023-04-06T06:03:55.252Z,2.10
2023-04-06T06:06:27.119Z,2.24
2023-04-06T06:09:07.704Z,2.52
2023-04-06T06:11:41.711Z,2.52
2023-04-06T06:14:10.170Z,2.49
2023-04-06T06:16:39.960Z,2.94
2023-04-06T06:19:09.038Z,3.05
2023-04-06T06:21:37.624Z,3.38
2023-04-06T06:24:08.011Z,3.90
2023-04-06T06:26:38.153Z,4.12
2023-04-06T06:29:08.619Z,4.43
2023-04-06T06:31:39.055Z,4.51
2023-04-06T06:34:06.527Z,4.56
2023-04-06T06:36:36.442Z,4.73
2023-04-06T06:39:07.386Z,5.59
2023-04-06T06:41:35.500Z,6.38
2023-04-06T06:44:03.452Z,6.45
2023-04-06T06:46:31.026Z,6.72
2023-04-06T06:48:59.884Z,6.69
2023-04-06T06:51:27.388Z,6.65
2023-04-06T06:53:54.816Z,7.04
2023-04-06T06:56:23.222Z,6.92
2023-04-06T06:58:52.631Z,7.48
2023-04-06T07:01:20.486Z,8.15
2023-04-06T07:03:48.040Z,8.42
2023-04-06T07:06:15.393Z,8.33
2023-04-06T07:08:42.768Z,8.34
2023-04-06T07:11:10.278Z,9.20
2023-04-06T07:13:37.653Z,9.32
2023-04-06T07:16:05.565Z,10.23
2023-04-06T07:18:35.645Z,10.64
2023-04-06T07:21:03.909Z,10.98
2023-04-06T07:23:31.307Z,11.25
2023-04-06T07:25:58.672Z,10.14
2023-04-06T07:28:26.101Z,10.24
2023-04-06T07:30:55.442Z,10.73
2023-04-06T07:33:23.466Z,11.59
2023-04-06T07:35:52.683Z,12.33
2023-04-06T07:38:20.368Z,12.35
2023-04-06T07:40:47.780Z,12.58
2023-04-06T07:43:15.309Z,12.72
2023-04-06T07:45:43.139Z,12.87
2023-04-06T07:48:11.475Z,12.69
2023-04-06T07:50:39.721Z,12.10
2023-04-06T07:53:07.727Z,11.32
2023-04-06T07:55:35.948Z,10.89
2023-04-06T07:58:03.311Z,9.69
2023-04-06T08:00:32.569Z,8.91
2023-04-06T08:03:00.197Z,8.95
2023-04-06T08:05:27.774Z,8.93
2023-04-06T08:07:55.202Z,8.45
2023-04-06T08:10:22.539Z,8.18
2023-04-06T08:12:49.813Z,7.88
2023-04-06T08:15:19.219Z,8.45
2023-04-06T08:17:46.730Z,9.66
2023-04-06T08:20:14.071Z,10.31
2023-04-06T08:22:41.377Z,10.14
2023-04-06T08:25:09.092Z,9.47
2023-04-06T08:27:36.529Z,10.06
2023-04-06T08:30:04.306Z,9.80
2023-04-06T08:32:32.029Z,9.78
2023-04-06T08:34:59.389Z,9.81
2023-04-06T08:37:26.886Z,9.80
2023-04-06T08:39:54.261Z,10.74
2023-04-06T08:42:23.642Z,10.85
2023-04-06T08:44:53.500Z,11.90
2023-04-06T08:47:24.067Z,12.58
2023-04-06T08:49:54.853Z,14.22
2023-04-06T08:52:22.263Z,14.12
2023-04-06T08:54:49.750Z,15.78
2023-04-06T08:57:17.822Z,16.65
2023-04-06T08:59:46.221Z,16.63
2023-04-06T09:02:19.600Z,14.71
2023-04-06T09:04:49.861Z,13.84
2023-04-06T09:07:17.825Z,15.64
2023-04-06T09:09:48.813Z,16.70
2023-04-06T09:12:31.294Z,17.06
2023-04-06T09:14:59.852Z,14.31
2023-04-06T09:17:34.889Z,12.74
2023-04-06T09:20:04.174Z,12.27
2023-04-06T09:22:43.064Z,12.62
2023-04-06T09:25:19.100Z,12.45
2023-04-06T09:27:46.533Z,11.80
2023-04-06T09:30:17.840Z,9.85
2023-04-06T09:32:53.396Z,9.18
2023-04-06T09:35:22.129Z,8.71
2023-04-06T09:37:52.907Z,8.94
2023-04-06T09:40:22.156Z,8.88
2023-04-06T09:42:53.055Z,9.15
2023-04-06T09:45:21.913Z,8.37
2023-04-06T09:47:52.462Z,8.96
2023-04-06T09:50:20.900Z,9.44
2023-04-06T09:52:52.324Z,9.02
2023-04-06T09:55:31.629Z,8.53
2023-04-06T09:58:20.262Z,8.67
2023-04-06T10:01:18.425Z,8.61
2023-04-06T10:04:13.547Z,8.15
2023-04-06T10:06:41.990Z,7.89
2023-04-06T10:09:10.372Z,7.91
2023-04-06T10:11:38.177Z,7.83
2023-04-06T10:14:06.604Z,8.05
2023-04-06T10:16:34.286Z,8.06
2023-04-06T10:19:32.716Z,8.22
2023-04-06T10:22:03.839Z,8.43
2023-04-06T10:24:31.328Z,7.85
2023-04-06T10:27:07.417Z,8.08
2023-04-06T10:29:49.935Z,7.84
2023-04-06T10:32:17.582Z,7.71
2023-04-06T10:34:44.910Z,7.55
2023-04-06T10:37:16.961Z,7.59
2023-04-06T10:39:59.355Z,7.23
2023-04-06T10:42:38.502Z,7.28
2023-04-06T10:45:21.639Z,7.22
2023-04-06T10:47:49.425Z,7.89
2023-04-06T10:50:18.230Z,8.33
2023-04-06T10:52:47.623Z,8.80
2023-04-06T10:55:16.079Z,8.51
2023-04-06T10:57:43.585Z,8.06
2023-04-06T11:00:13.968Z,8.57
2023-04-06T11:02:41.774Z,9.20
2023-04-06T11:05:09.740Z,9.97
2023-04-06T11:07:37.132Z,10.26
2023-04-06T11:10:15.594Z,11.44
2023-04-06T11:12:45.933Z,10.74
2023-04-06T11:15:13.222Z,11.76
2023-04-06T11:17:40.912Z,11.91
2023-04-06T11:20:12.379Z,11.72
2023-04-06T11:22:53.626Z,11.38
2023-04-06T11:25:21.059Z,10.94
2023-04-06T11:27:49.393Z,9.52
2023-04-06T11:30:16.878Z,9.31
2023-04-06T11:32:46.845Z,9.63
2023-04-06T11:35:23.440Z,9.22
2023-04-06T11:37:51.610Z,9.24
2023-04-06T11:40:25.945Z,9.12
2023-04-06T11:42:57.595Z,9.02
2023-04-06T11:45:25.076Z,8.63
2023-04-06T11:48:01.551Z,8.51
2023-04-06T11:50:35.681Z,8.29
2023-04-06T11:53:04.237Z,8.29
2023-04-06T11:55:39.862Z,8.73
2023-04-06T11:58:08.186Z,8.95
2023-04-06T12:00:35.868Z,8.60
2023-04-06T12:03:03.389Z,8.73
2023-04-06T12:05:31.008Z,8.50
2023-04-06T12:08:01.079Z,8.23
2023-04-06T12:10:30.813Z,8.17
2023-04-06T12:12:58.206Z,7.55
2023-04-06T12:15:25.522Z,7.62
2023-04-06T12:17:53.350Z,8.01
2023-04-06T12:20:26.549Z,7.78
2023-04-06T12:22:54.757Z,7.92
2023-04-06T12:25:22.186Z,7.81
2023-04-06T12:27:49.607Z,7.70
2023-04-06T12:30:17.252Z,7.44
2023-04-06T12:32:44.829Z,7.44
2023-04-06T12:35:14.128Z,7.21
2023-04-06T12:37:41.851Z,7.00
2023-04-06T12:40:11.638Z,6.68
2023-04-06T12:42:42.435Z,6.84
2023-04-06T12:45:10.740Z,6.70
2023-04-06T12:47:38.844Z,6.81
2023-04-06T12:50:07.656Z,6.96
2023-04-06T12:52:36.629Z,6.93
2023-04-06T12:55:06.099Z,6.98
2023-04-06T12:57:33.504Z,6.42
2023-04-06T13:00:01.301Z,5.66
2023-04-06T13:02:28.971Z,6.20
2023-04-06T13:04:56.459Z,6.38
2023-04-06T13:07:24.016Z,6.69
2023-04-06T13:09:52.359Z,6.88
2023-04-06T13:12:20.019Z,6.70
2023-04-06T13:14:51.937Z,6.09
2023-04-06T13:17:19.334Z,6.00
2023-04-06T13:19:46.667Z,6.53
2023-04-06T13:22:13.957Z,6.60
2023-04-06T13:24:41.230Z,6.50
2023-04-06T13:27:08.550Z,6.28
2023-04-06T13:29:36.027Z,6.26
2023-04-06T13:32:03.395Z,6.04
2023-04-06T13:34:30.738Z,6.14
2023-04-06T13:36:58.112Z,6.14
2023-04-06T13:39:25.544Z,5.83
2023-04-06T13:41:57.237Z,5.61
2023-04-06T13:44:24.722Z,5.91
2023-04-06T13:46:52.198Z,5.68
2023-04-06T13:49:19.729Z,5.23
2023-04-06T13:51:47.132Z,5.46
2023-04-06T13:54:14.402Z,5.44
2023-04-06T13:56:41.744Z,5.71
2023-04-06T13:59:08.988Z,5.44
2023-04-06T14:01:36.484Z,5.38
2023-04-06T14:04:04.017Z,5.52
2023-04-06T14:06:32.297Z,5.11
2023-04-06T14:09:00.317Z,5.29
2023-04-06T14:11:27.953Z,5.45
2023-04-06T14:13:57.799Z,5.43
2023-04-06T14:16:26.110Z,5.29
2023-04-06T14:18:53.420Z,5.16
2023-04-06T14:21:21.079Z,5.12
2023-04-06T14:23:48.346Z,5.04
2023-04-06T14:26:16.357Z,5.05
2023-04-06T14:28:43.941Z,5.07
2023-04-06T14:31:14.663Z,5.15
2023-04-06T14:33:43.443Z,5.13
2023-04-06T14:36:11.938Z,5.16
2023-04-06T14:38:40.495Z,5.37
2023-04-06T14:41:09.212Z,5.34
2023-04-06T14:43:36.468Z,5.32
2023-04-06T14:46:04.044Z,5.24
2023-04-06T14:48:31.422Z,4.94
2023-04-06T14:50:59.081Z,5.12
2023-04-06T14:53:27.189Z,4.87
2023-04-06T14:55:54.983Z,4.82
2023-04-06T14:58:24.109Z,4.91
2023-04-06T15:01:01.164Z,4.91
2023-04-06T15:03:30.499Z,4.57
2023-04-06T15:05:58.663Z,4.72
2023-04-06T15:08:26.438Z,4.97
2023-04-06T15:10:55.746Z,5.26
2023-04-06T15:13:23.229Z,5.17
2023-04-06T15:15:52.664Z,5.24
2023-04-06T15:18:21.085Z,4.81
2023-04-06T15:20:48.803Z,4.51
2023-04-06T15:23:16.200Z,4.27
2023-04-06T15:25:43.552Z,4.23
2023-04-06T15:28:11.156Z,4.24
2023-04-06T15:30:38.921Z,4.26
2023-04-06T15:33:09.479Z,4.37
2023-04-06T15:35:41.114Z,4.59
2023-04-06T15:38:10.092Z,4.69
2023-04-06T15:40:48.402Z,4.55
2023-04-06T15:43:16.666Z,4.44
2023-04-06T15:45:43.965Z,4.48
2023-04-06T15:48:11.355Z,4.32
2023-04-06T15:50:38.797Z,4.14
2023-04-06T15:53:06.184Z,4.21
2023-04-06T15:55:33.640Z,4.19
2023-04-06T15:58:01.105Z,4.08
2023-04-06T16:00:28.958Z,3.99
2023-04-06T16:02:57.309Z,3.85
2023-04-06T16:05:25.733Z,3.84
2023-04-06T16:07:55.020Z,3.66
2023-04-06T16:10:22.309Z,3.67
2023-04-06T16:12:49.581Z,3.50
2023-04-06T16:15:17.232Z,3.40
2023-04-06T16:17:44.597Z,3.15
2023-04-06T16:20:12.950Z,3.23
2023-04-06T16:22:41.143Z,3.52
2023-04-06T16:25:09.289Z,3.59
2023-04-06T16:27:36.758Z,3.58
2023-04-06T16:30:05.022Z,3.58
2023-04-06T16:32:32.365Z,3.46
2023-04-06T16:34:59.675Z,3.57
2023-04-06T16:37:29.729Z,3.46
2023-04-06T16:39:57.520Z,2.91
2023-04-06T16:42:25.301Z,2.59
2023-04-06T16:44:52.787Z,2.74
2023-04-06T16:47:20.746Z,2.37
2023-04-06T16:49:47.960Z,2.28
2023-04-06T16:52:15.236Z,2.42
2023-04-06T16:54:42.366Z,2.38
2023-04-06T16:57:09.756Z,2.31
2023-04-06T16:59:37.262Z,2.38
2023-04-06T17:02:04.525Z,2.26
2023-04-06T17:04:31.870Z,2.09
2023-04-06T17:06:59.186Z,2.13
2023-04-06T17:09:26.608Z,2.08
2023-04-06T17:11:53.827Z,2.15
2023-04-06T17:14:21.198Z,2.00
2023-04-06T17:16:48.704Z,2.12
2023-04-06T17:19:16.215Z,2.05
2023-04-06T17:21:43.434Z,1.91
2023-04-06T17:24:10.932Z,1.68
2023-04-06T17:26:38.266Z,1.78
2023-04-06T17:29:05.549Z,1.91
2023-04-06T17:31:33.060Z,2.01
2023-04-06T17:34:00.862Z,2.16
2023-04-06T17:36:28.572Z,2.22
2023-04-06T17:38:55.977Z,2.15
2023-04-06T17:41:24.202Z,2.28
2023-04-06T17:43:51.613Z,2.11
2023-04-06T17:46:20.659Z,2.15
2023-04-06T17:48:48.660Z,2.23
2023-04-06T17:51:18.873Z,2.15
2023-04-06T17:53:46.901Z,2.01
2023-04-06T17:56:14.497Z,1.86
2023-04-06T17:58:42.072Z,1.84
2023-04-06T18:01:13.024Z,1.94
2023-04-06T18:03:40.415Z,2.00
2023-04-06T18:06:16.180Z,2.05
2023-04-06T18:08:43.762Z,1.86
2023-04-06T18:11:21.702Z,2.03
2023-04-06T18:13:49.696Z,2.00
2023-04-06T18:16:17.746Z,1.90
2023-04-06T18:18:45.413Z,1.98
2023-04-06T18:21:12.675Z,1.99
2023-04-06T18:23:40.065Z,1.86
2023-04-06T18:26:07.657Z,1.97
2023-04-06T18:28:35.007Z,1.80
2023-04-06T18:31:02.554Z,1.86
2023-04-06T18:33:30.099Z,1.83
2023-04-06T18:35:57.336Z,1.88
2023-04-06T18:38:24.636Z,1.93
2023-04-06T18:40:52.645Z,1.95
2023-04-06T18:43:19.909Z,1.73
2023-04-06T18:45:47.750Z,1.89
2023-04-06T18:48:15.030Z,2.01
2023-04-06T18:50:55.576Z,2.04
2023-04-06T18:53:22.750Z,2.29
2023-04-06T18:55:51.626Z,2.35
2023-04-06T18:58:19.451Z,2.31
2023-04-06T19:00:46.849Z,2.30
2023-04-06T19:03:14.282Z,2.31
2023-04-06T19:05:42.424Z,2.17
2023-04-06T19:08:10.499Z,2.17
2023-04-06T19:10:38.719Z,2.16
2023-04-06T19:13:06.163Z,2.25
2023-04-06T19:15:33.606Z,2.21
2023-04-06T19:18:00.961Z,2.22
2023-04-06T19:20:28.210Z,2.23
2023-04-06T19:25:28.329Z,2.15
2023-04-06T19:27:56.746Z,2.15
2023-04-06T19:30:24.387Z,2.01
2023-04-06T19:32:51.714Z,1.94
2023-04-06T19:35:19.232Z,2.05
2023-04-06T19:37:46.590Z,1.99
2023-04-06T19:40:13.881Z,2.13
2023-04-06T19:42:41.160Z,2.26
2023-04-06T19:45:09.094Z,2.28
2023-04-06T19:47:36.801Z,2.19
2023-04-06T19:50:06.002Z,2.27
2023-04-06T19:52:33.874Z,2.22
2023-04-06T19:55:01.180Z,2.25
2023-04-06T19:57:28.664Z,2.34
2023-04-06T19:59:56.520Z,2.27
2023-04-06T20:02:23.819Z,2.26
2023-04-06T20:04:51.336Z,2.26
2023-04-06T20:07:18.657Z,2.20
2023-04-06T20:09:45.960Z,2.19
2023-04-06T20:12:13.265Z,2.19
2023-04-06T20:14:40.496Z,2.17
2023-04-06T20:17:07.793Z,2.27
2023-04-06T20:19:35.108Z,2.22
2023-04-06T20:22:03.801Z,2.31
2023-04-06T20:24:31.654Z,2.25
2023-04-06T20:26:59.460Z,2.23
2023-04-06T20:29:27.417Z,2.17
2023-04-06T20:31:54.834Z,2.11
2023-04-06T20:34:25.972Z,2.07
2023-04-06T20:36:53.775Z,2.14
2023-04-06T20:39:21.773Z,2.18
2023-04-06T20:41:49.231Z,2.13
2023-04-06T20:44:16.938Z,2.25
2023-04-06T20:46:45.816Z,2.24
2023-04-06T20:49:13.310Z,2.23
2023-04-06T20:51:42.595Z,2.18
2023-04-06T20:54:09.811Z,2.25
2023-04-06T20:56:37.140Z,2.07
2023-04-06T20:59:07.507Z,2.20
2023-04-06T21:01:34.799Z,2.16
2023-04-06T21:04:04.246Z,2.17
2023-04-06T21:06:32.460Z,2.23
2023-04-06T21:09:01.284Z,2.17
2023-04-06T21:11:28.571Z,2.26
2023-04-06T21:13:56.657Z,2.35
2023-04-06T21:16:23.882Z,2.28
2023-04-06T21:18:51.902Z,2.39
2023-04-06T21:21:19.082Z,2.41
2023-04-06T21:23:46.438Z,2.28
2023-04-06T21:26:13.784Z,2.28
2023-04-06T21:28:41.003Z,2.23
2023-04-06T21:31:09.663Z,2.28
2023-04-06T21:33:36.924Z,2.24
2023-04-06T21:36:08.603Z,2.26
2023-04-06T21:38:35.899Z,2.35
2023-04-06T21:41:03.508Z,2.48
2023-04-06T21:43:30.927Z,2.46
2023-04-06T21:45:58.146Z,2.39
2023-04-06T21:48:25.434Z,2.31
2023-04-06T21:50:52.839Z,2.38
2023-04-06T21:53:20.251Z,2.34
2023-04-06T21:55:48.156Z,2.46
2023-04-06T21:58:15.959Z,2.38
2023-04-06T22:00:43.461Z,2.39
2023-04-06T22:03:11.238Z,2.41
2023-04-06T22:05:38.644Z,2.10
2023-04-06T22:08:05.943Z,2.19
2023-04-06T22:10:33.232Z,2.16
2023-04-06T22:13:00.492Z,2.27
2023-04-06T22:15:27.704Z,2.28
2023-04-06T22:17:55.066Z,2.38
2023-04-06T22:20:22.291Z,2.45
2023-04-06T22:22:50.094Z,2.26
2023-04-06T22:25:17.353Z,2.33
2023-04-06T22:27:44.815Z,2.23
2023-04-06T22:30:12.411Z,2.18
2023-04-06T22:32:39.742Z,2.39
2023-04-06T22:35:08.132Z,2.58
2023-04-06T22:37:35.476Z,2.74
2023-04-06T22:40:02.886Z,2.71
2023-04-06T22:42:30.148Z,2.18
2023-04-06T22:44:57.293Z,2.10
2023-04-06T22:47:24.601Z,2.15
2023-04-06T22:49:51.964Z,2.17
2023-04-06T22:52:19.202Z,2.15
2023-04-06T22:54:46.594Z,2.21
2023-04-06T22:57:13.906Z,2.43
2023-04-06T22:59:41.318Z,2.63
2023-04-06T23:02:08.969Z,2.52
2023-04-06T23:04:36.375Z,2.28
2023-04-06T23:07:03.556Z,2.35
2023-04-06T23:09:31.231Z,1.95
2023-04-06T23:11:58.447Z,2.05
2023-04-06T23:14:25.665Z,2.00
2023-04-06T23:16:52.879Z,2.17
2023-04-06T23:19:20.195Z,2.17
2023-04-06T23:21:47.532Z,1.80
2023-04-06T23:24:14.761Z,1.96
2023-04-06T23:26:41.979Z,2.16
2023-04-06T23:29:09.202Z,2.14
2023-04-06T23:31:36.520Z,1.88
2023-04-06T23:34:04.047Z,2.02
2023-04-06T23:36:32.117Z,2.04
2023-04-06T23:38:59.299Z,2.19
2023-04-06T23:41:27.743Z,2.21
2023-04-06T23:43:56.137Z,2.03
2023-04-06T23:46:23.524Z,1.75
2023-04-06T23:48:50.857Z,1.93
2023-04-06T23:51:18.131Z,1.99
2023-04-06T23:53:46.294Z,1.76
2023-04-06T23:56:13.554Z,1.72
2023-04-06T23:58:41.180Z,1.92
